Airfield :
LOGIN :

Register | Disclaimer

   EN    FR    IT 

 










Legend :    VFR   Marginal VFR   IFR   Intensive IFR   Very Intensive IFR
Visi :
Ceiling :
>= 8 km
>= 3000ft
5 to 8 km
1000 to 3000 ft
1500m to 5 km
500 to 1000 ft
800 to 1500m
200 to 500 ft
< 800m
< 200 ft
Symbols :   Thunderstorms  Fog  Heavy snow  Heavy precipitations  Wind > 20 kt
SIGMETs :     Misc.  Thunderstorms  Icing  Turbulence  Mountain Waves  Volcanic Ashes






- Airport Elevation : 235 ft
- IATA code : BZG


EPBY - Bydgoszcz

CURRENT METAR :
  • 310430Z 36009KT CAVOK 13/06 Q1016

EXPIRED METARs :
  • 310400Z 36010KT CAVOK 12/06 Q1016
  • 310330Z 35008KT 320V020 CAVOK 12/06 Q1016
  • 310300Z 33008KT CAVOK 12/07 Q1016
  • 310230Z 34010KT CAVOK 11/07 Q1016
  • 310200Z 34009KT 310V010 CAVOK 11/07 Q1016

TAF TAF EPBY
Valid from the 31 at 00:00 until the 01 at 00:00 UTC


302330Z 3100/3124 35012KT CAVOK
PROB40
TEMPO 3108/3120 02016G32KT



MET'MAP, your aeronautical weather chart ! - Copyright ORBIFLY December 2007 - Disclaimer

ORBIFLY MET'MAP TEAM :

Programming & Development : Alexandra Zaïnal
Concept & original design : Baudouin d'Aumeries
Assistance for programming : Marc-Olivier Méhu
Technical & hardware support : Manuel Goepfert

Contact : metmap@orbifly.com




SOURCES & CREDITS :

   NOAA